createdAt,value
2023-02-14T00:00:35.345Z,13.97
2023-02-14T00:03:07.622Z,13.63
2023-02-14T00:05:37.306Z,14.03
2023-02-14T00:08:06.979Z,13.93
2023-02-14T00:10:36.645Z,13.50
2023-02-14T00:13:06.326Z,12.70
2023-02-14T00:15:33.377Z,13.80
2023-02-14T00:18:03.606Z,14.03
2023-02-14T00:20:37.044Z,11.90
2023-02-14T00:23:06.628Z,13.13
2023-02-14T00:25:36.870Z,14.43
2023-02-14T00:28:06.622Z,15.40
2023-02-14T00:30:37.356Z,15.10
2023-02-14T00:33:07.818Z,16.93
2023-02-14T00:35:42.828Z,16.90
2023-02-14T00:38:12.467Z,16.80
2023-02-14T00:40:42.652Z,17.57
2023-02-14T00:43:12.267Z,16.97
2023-02-14T00:45:41.896Z,16.27
2023-02-14T00:48:11.624Z,16.93
2023-02-14T00:50:45.858Z,17.90
2023-02-14T00:53:15.683Z,17.17
2023-02-14T00:55:47.857Z,17.97
2023-02-14T00:58:18.015Z,16.20
2023-02-14T01:00:47.638Z,17.00
2023-02-14T01:03:17.415Z,15.20
2023-02-14T01:05:50.354Z,16.03
2023-02-14T01:08:20.803Z,16.37
2023-02-14T01:10:50.575Z,16.43
2023-02-14T01:13:20.693Z,15.23
2023-02-14T01:15:52.717Z,15.90
2023-02-14T01:18:22.386Z,14.40
2023-02-14T01:20:54.603Z,16.60
2023-02-14T01:23:24.223Z,16.10
2023-02-14T01:25:53.851Z,15.50
2023-02-14T01:28:23.478Z,14.73
2023-02-14T01:30:53.135Z,16.47
2023-02-14T01:33:22.755Z,15.30
2023-02-14T01:35:54.937Z,16.30
2023-02-14T01:38:24.541Z,15.63
2023-02-14T01:40:54.156Z,14.13
2023-02-14T01:43:23.788Z,15.00
2023-02-14T01:45:53.560Z,13.60
2023-02-14T01:48:25.588Z,13.90
2023-02-14T01:50:59.009Z,14.23
2023-02-14T01:53:31.854Z,13.20
2023-02-14T01:56:06.796Z,14.77
2023-02-14T01:58:40.415Z,14.03
2023-02-14T02:01:07.620Z,14.30
2023-02-14T02:03:41.847Z,14.10
2023-02-14T02:06:19.291Z,15.07
2023-02-14T02:08:58.611Z,13.20
2023-02-14T02:11:28.614Z,13.97
2023-02-14T02:13:58.396Z,18.80
2023-02-14T02:16:41.947Z,21.30
2023-02-14T02:19:33.602Z,20.60
2023-02-14T02:22:23.956Z,19.37
2023-02-14T02:25:03.245Z,18.57
2023-02-14T02:27:51.266Z,16.20
2023-02-14T02:30:47.058Z,11.77
2023-02-14T02:33:58.115Z,14.37
2023-02-14T02:37:10.891Z,16.00
2023-02-14T02:39:52.992Z,15.40
2023-02-14T02:42:30.331Z,17.00
2023-02-14T02:45:09.559Z,16.90
2023-02-14T02:47:47.360Z,18.50
2023-02-14T02:50:37.983Z,16.97
2023-02-14T02:53:19.144Z,18.53
2023-02-14T02:56:07.613Z,18.53
2023-02-14T02:58:40.514Z,19.53
2023-02-14T03:01:14.386Z,20.13
2023-02-14T03:03:59.372Z,16.90
2023-02-14T03:06:29.179Z,16.50
2023-02-14T03:09:11.969Z,18.00
2023-02-14T03:11:51.778Z,17.80
2023-02-14T03:14:25.139Z,16.47
2023-02-14T03:17:06.523Z,16.97
2023-02-14T03:20:08.135Z,16.20
2023-02-14T03:22:48.505Z,16.70
2023-02-14T03:25:31.120Z,16.33
2023-02-14T03:28:09.137Z,16.63
2023-02-14T03:30:48.368Z,15.37
2023-02-14T03:33:25.443Z,16.03
2023-02-14T03:36:02.002Z,16.03
2023-02-14T03:38:38.623Z,13.97
2023-02-14T03:41:16.013Z,13.47
2023-02-14T03:43:50.248Z,13.63
2023-02-14T03:46:25.593Z,15.30
2023-02-14T03:48:59.820Z,14.23
2023-02-14T03:51:34.356Z,14.07
2023-02-14T03:54:05.970Z,13.93
2023-02-14T03:56:42.798Z,13.70
2023-02-14T03:59:17.349Z,13.60
2023-02-14T04:01:53.262Z,14.07
2023-02-14T04:04:26.305Z,13.93
2023-02-14T04:06:56.388Z,13.53
2023-02-14T04:09:26.108Z,13.40
2023-02-14T04:11:58.339Z,12.63
2023-02-14T04:14:29.579Z,12.63
2023-02-14T04:17:11.789Z,12.70
2023-02-14T04:19:41.398Z,13.97
2023-02-14T04:22:11.132Z,13.50
2023-02-14T04:24:40.761Z,13.37
2023-02-14T04:27:13.676Z,13.17
2023-02-14T04:29:45.726Z,11.70
2023-02-14T04:32:17.667Z,12.00
2023-02-14T04:34:47.709Z,13.00
2023-02-14T04:37:19.346Z,12.43
2023-02-14T04:39:49.167Z,12.40
2023-02-14T04:42:21.413Z,11.70
2023-02-14T04:44:51.065Z,12.30
2023-02-14T04:47:20.932Z,11.43
2023-02-14T04:49:50.613Z,13.07
2023-02-14T04:52:20.335Z,13.20
2023-02-14T04:54:50.451Z,11.27
2023-02-14T04:57:22.687Z,12.07
2023-02-14T04:59:52.334Z,12.20
2023-02-14T05:02:21.997Z,11.83
2023-02-14T05:04:51.742Z,12.23
2023-02-14T05:07:21.350Z,11.50
2023-02-14T05:09:50.944Z,13.03
2023-02-14T05:12:23.116Z,12.97
2023-02-14T05:14:52.721Z,11.67
2023-02-14T05:17:22.364Z,11.90
2023-02-14T05:19:51.967Z,11.80
2023-02-14T05:22:21.570Z,13.07
2023-02-14T05:24:51.450Z,12.30
2023-02-14T05:27:23.631Z,11.37
2023-02-14T05:29:53.289Z,11.50
2023-02-14T05:32:23.004Z,11.37
2023-02-14T05:34:52.674Z,11.37
2023-02-14T05:37:22.295Z,9.77
2023-02-14T05:39:51.924Z,11.37
2023-02-14T05:42:24.301Z,10.13
2023-02-14T05:44:53.932Z,10.53
2023-02-14T05:47:23.555Z,10.70
2023-02-14T05:49:53.313Z,11.30
2023-02-14T05:52:22.920Z,12.10
2023-02-14T05:54:52.702Z,10.73
2023-02-14T05:57:24.970Z,10.50
2023-02-14T05:59:54.582Z,10.03
2023-02-14T06:02:24.222Z,12.07
2023-02-14T06:04:53.970Z,10.80
2023-02-14T06:07:23.600Z,10.13
2023-02-14T06:09:53.252Z,9.90
2023-02-14T06:12:25.463Z,13.90
2023-02-14T06:14:55.096Z,18.47
2023-02-14T06:17:24.721Z,15.33
2023-02-14T06:19:54.317Z,12.80
2023-02-14T06:22:24.193Z,11.00
2023-02-14T06:24:53.841Z,10.80
2023-02-14T06:27:26.014Z,10.87
2023-02-14T06:29:55.691Z,9.83
2023-02-14T06:32:25.885Z,9.50
2023-02-14T06:34:55.620Z,9.63
2023-02-14T06:37:25.240Z,9.47
2023-02-14T06:39:54.837Z,10.53
2023-02-14T06:42:27.204Z,9.70
2023-02-14T06:44:56.805Z,9.70
2023-02-14T06:47:26.411Z,10.13
2023-02-14T06:49:56.237Z,10.57
2023-02-14T06:52:25.838Z,11.33
2023-02-14T06:54:55.525Z,10.40
2023-02-14T06:57:27.822Z,11.03
2023-02-14T06:59:57.765Z,9.57
2023-02-14T07:02:27.405Z,11.00
2023-02-14T07:04:57.165Z,11.37
2023-02-14T07:07:26.773Z,10.73
2023-02-14T07:09:59.254Z,11.80
2023-02-14T07:12:31.496Z,9.97
2023-02-14T07:15:01.196Z,11.83
2023-02-14T07:17:37.705Z,11.57
2023-02-14T07:20:11.781Z,12.53
2023-02-14T07:22:48.137Z,12.27
2023-02-14T07:25:18.960Z,11.93
2023-02-14T07:28:00.964Z,12.73
2023-02-14T07:30:36.146Z,12.60
2023-02-14T07:33:10.190Z,13.77
2023-02-14T07:35:43.422Z,13.60
2023-02-14T07:44:28.167Z,14.10
2023-02-14T07:46:57.823Z,16.03
2023-02-14T07:49:27.490Z,16.30
2023-02-14T07:51:57.126Z,14.40
2023-02-14T07:54:27.076Z,15.93
2023-02-14T07:56:57.622Z,17.73
2023-02-14T07:59:30.366Z,16.20
2023-02-14T08:02:01.009Z,16.97
2023-02-14T08:04:32.943Z,17.20
2023-02-14T08:07:06.632Z,15.07
2023-02-14T08:09:37.421Z,17.50
2023-02-14T08:12:22.843Z,17.23
2023-02-14T08:15:16.392Z,17.03
2023-02-14T08:17:46.093Z,15.47
2023-02-14T08:20:16.044Z,16.20
2023-02-14T08:22:45.688Z,17.87
2023-02-14T08:25:15.350Z,18.60
2023-02-14T08:27:44.976Z,17.70
2023-02-14T08:30:18.536Z,17.83
2023-02-14T08:32:48.493Z,17.70
2023-02-14T08:35:18.387Z,18.40
2023-02-14T08:37:48.021Z,19.07
2023-02-14T08:40:18.026Z,18.53
2023-02-14T08:42:47.644Z,20.77
2023-02-14T08:45:20.172Z,22.20
2023-02-14T08:48:03.592Z,22.07
2023-02-14T08:54:16.411Z,22.10
2023-02-14T09:04:21.694Z,16.03
2023-02-14T09:20:35.172Z,17.10
2023-02-14T09:23:07.668Z,16.00
2023-02-14T09:25:49.498Z,18.37
2023-02-14T09:28:29.450Z,16.60
2023-02-14T09:31:13.000Z,18.20
2023-02-14T09:33:50.314Z,14.10
2023-02-14T10:30:54.345Z,10.07
2023-02-14T10:34:15.277Z,8.50
2023-02-14T10:37:25.167Z,8.23
2023-02-14T10:40:56.610Z,9.30
2023-02-14T10:44:37.480Z,10.70
2023-02-14T10:53:09.013Z,9.53
2023-02-14T10:57:13.404Z,8.50
2023-02-14T11:00:59.911Z,9.13
2023-02-14T11:06:03.445Z,9.00
2023-02-14T11:17:10.103Z,7.90
2023-02-14T11:23:54.579Z,8.27
2023-02-14T11:26:28.724Z,8.87
2023-02-14T11:29:03.901Z,8.47
2023-02-14T11:31:36.781Z,7.83
2023-02-14T11:34:09.454Z,8.60
2023-02-14T11:36:44.123Z,9.70
2023-02-14T11:39:25.825Z,9.20
2023-02-14T11:41:58.205Z,8.57
2023-02-14T11:44:33.086Z,8.40
2023-02-14T11:47:22.751Z,8.47
2023-02-14T11:50:01.157Z,7.60
2023-02-14T11:52:32.747Z,7.37
2023-02-14T11:55:04.424Z,6.40
2023-02-14T11:57:38.472Z,6.50
2023-02-14T12:00:19.552Z,7.90
2023-02-14T12:02:51.684Z,7.90
2023-02-14T12:05:24.131Z,7.07
2023-02-14T12:07:56.865Z,7.33
2023-02-14T12:10:31.866Z,7.20
2023-02-14T12:13:03.635Z,7.60
2023-02-14T12:15:41.230Z,7.30
2023-02-14T12:18:39.694Z,7.47
2023-02-14T12:21:24.141Z,7.10
2023-02-14T12:24:01.460Z,7.13
2023-02-14T12:26:35.766Z,7.37
2023-02-14T12:29:14.284Z,7.43
2023-02-14T12:31:49.342Z,7.30
2023-02-14T12:34:21.570Z,9.03
2023-02-14T12:37:19.829Z,10.20
2023-02-14T12:40:07.800Z,7.77
2023-02-14T12:42:49.730Z,7.33
2023-02-14T12:45:28.406Z,7.60
2023-02-14T12:48:16.299Z,6.80
2023-02-14T12:50:53.351Z,5.80
2023-02-14T12:53:40.632Z,7.20
2023-02-14T12:56:19.310Z,5.40
2023-02-14T12:59:01.590Z,5.80
2023-02-14T13:01:47.978Z,5.80
2023-02-14T13:04:56.029Z,5.37
2023-02-14T13:07:38.379Z,6.57
2023-02-14T13:10:18.148Z,6.20
2023-02-14T13:12:54.358Z,6.53
2023-02-14T13:15:29.955Z,6.53
2023-02-14T13:18:07.367Z,7.07
2023-02-14T13:20:46.035Z,6.37
2023-02-14T13:23:20.200Z,6.17
2023-02-14T13:25:54.590Z,6.77
2023-02-14T13:28:25.687Z,5.93
2023-02-14T13:30:57.914Z,6.60
2023-02-14T13:33:34.984Z,6.57
2023-02-14T13:36:11.633Z,5.73
2023-02-14T13:38:46.340Z,7.77
2023-02-14T13:41:18.129Z,7.43
2023-02-14T13:43:49.182Z,5.73
2023-02-14T13:46:20.755Z,5.60
2023-02-14T13:49:02.237Z,6.07
2023-02-14T13:51:51.244Z,5.40
2023-02-14T13:54:31.266Z,6.10
2023-02-14T13:57:01.513Z,6.50
2023-02-14T13:59:34.218Z,6.40
2023-02-14T14:02:35.293Z,6.53
2023-02-14T14:05:40.600Z,4.77
2023-02-14T14:08:41.465Z,6.27
2023-02-14T14:11:16.351Z,5.20
2023-02-14T14:14:07.470Z,6.20
2023-02-14T14:16:38.073Z,4.77
2023-02-14T14:19:33.270Z,5.33
2023-02-14T14:22:04.807Z,5.00
2023-02-14T14:24:37.883Z,5.40
2023-02-14T14:27:15.813Z,5.80
2023-02-14T14:29:50.137Z,4.67
2023-02-14T14:32:22.370Z,5.37
2023-02-14T14:34:53.518Z,5.00
2023-02-14T14:37:25.148Z,4.40
2023-02-14T14:39:59.734Z,5.70
2023-02-14T14:42:32.598Z,5.43
2023-02-14T14:45:05.668Z,5.30
2023-02-14T14:47:43.074Z,5.10
2023-02-14T14:50:18.978Z,4.20
2023-02-14T14:52:51.481Z,4.90
2023-02-14T14:55:26.895Z,4.77
2023-02-14T14:57:59.723Z,5.57
2023-02-14T15:00:31.169Z,6.00
2023-02-14T15:03:04.351Z,5.90
2023-02-14T15:05:37.582Z,5.10
2023-02-14T15:08:24.093Z,5.60
2023-02-14T15:11:02.329Z,4.40
2023-02-14T15:13:49.717Z,5.10
2023-02-14T15:16:21.981Z,4.50
2023-02-14T15:18:53.860Z,4.83
2023-02-14T15:21:23.690Z,4.87
2023-02-14T15:23:54.808Z,4.80
2023-02-14T15:26:32.387Z,4.93
2023-02-14T15:29:04.125Z,4.80
2023-02-14T15:31:37.429Z,4.80
2023-02-14T15:34:08.643Z,5.60
2023-02-14T15:36:39.481Z,5.30
2023-02-14T15:39:12.332Z,4.80
2023-02-14T15:41:48.865Z,4.20
2023-02-14T15:44:22.915Z,4.73
2023-02-14T15:46:58.634Z,4.67
2023-02-14T15:49:35.709Z,5.77
2023-02-14T15:52:07.780Z,6.40
2023-02-14T15:54:41.701Z,6.53
2023-02-14T15:57:23.748Z,6.40
2023-02-14T15:59:54.101Z,5.47
2023-02-14T16:02:32.563Z,6.43
2023-02-14T16:05:07.821Z,6.80
2023-02-14T16:07:37.643Z,8.20
2023-02-14T16:10:24.083Z,20.73
2023-02-14T16:13:26.606Z,11.23
2023-02-14T16:16:17.461Z,102.30
2023-02-14T16:19:03.105Z,73.03
2023-02-14T16:25:47.128Z,8.37
2023-02-14T16:35:28.529Z,6.30
2023-02-14T16:38:43.392Z,6.73
2023-02-14T16:41:24.178Z,6.60
2023-02-14T16:48:40.456Z,8.03
2023-02-14T16:55:14.783Z,8.87
2023-02-14T16:58:31.594Z,9.93
2023-02-14T17:01:47.345Z,9.30
2023-02-14T17:05:03.168Z,9.20
2023-02-14T17:07:52.023Z,9.50
2023-02-14T17:10:32.592Z,8.40
2023-02-14T17:13:29.765Z,7.50
2023-02-14T17:16:20.823Z,9.87
2023-02-14T17:19:23.162Z,8.50
2023-02-14T17:22:07.323Z,7.70
2023-02-14T17:24:46.419Z,8.90
2023-02-14T17:27:26.869Z,8.87
2023-02-14T17:30:03.469Z,8.07
2023-02-14T17:32:37.971Z,9.73
2023-02-14T17:35:20.243Z,12.47
2023-02-14T17:38:00.774Z,11.20
2023-02-14T17:40:36.341Z,13.47
2023-02-14T17:43:17.854Z,15.40
2023-02-14T17:45:57.280Z,15.10
2023-02-14T17:48:36.045Z,15.80
2023-02-14T17:51:07.893Z,16.30
2023-02-14T17:53:46.290Z,16.33
2023-02-14T17:56:22.432Z,17.07
2023-02-14T17:58:59.918Z,16.50
2023-02-14T18:01:36.660Z,15.97
2023-02-14T18:04:12.319Z,15.10
2023-02-14T18:07:01.563Z,17.90
2023-02-14T18:09:38.024Z,19.30
2023-02-14T18:12:14.918Z,18.17
2023-02-14T18:15:09.477Z,15.77
2023-02-14T18:17:51.070Z,13.37
2023-02-14T18:20:37.017Z,12.53
2023-02-14T18:23:21.537Z,13.07
2023-02-14T18:25:59.849Z,13.93
2023-02-14T18:28:41.040Z,12.10
2023-02-14T18:31:13.765Z,11.57
2023-02-14T18:33:55.422Z,10.53
2023-02-14T18:36:27.828Z,9.50
2023-02-14T18:38:58.654Z,10.30
2023-02-14T18:41:32.269Z,9.67
2023-02-14T18:44:03.091Z,9.50
2023-02-14T18:46:38.280Z,11.10
2023-02-14T18:49:09.726Z,10.73
2023-02-14T18:51:41.437Z,11.50
2023-02-14T18:54:11.528Z,11.50
2023-02-14T18:56:44.163Z,11.47
2023-02-14T18:59:18.254Z,11.23
2023-02-14T19:01:48.668Z,12.80
2023-02-14T19:04:18.749Z,12.50
2023-02-14T19:06:49.548Z,11.87
2023-02-14T19:09:20.076Z,10.63
2023-02-14T19:11:52.821Z,11.23
2023-02-14T19:14:22.760Z,13.10
2023-02-14T19:16:53.653Z,12.43
2023-02-14T19:19:24.348Z,13.43
2023-02-14T19:22:01.147Z,14.40
2023-02-14T19:24:31.669Z,12.63
2023-02-14T19:27:06.876Z,13.53
2023-02-14T19:29:38.525Z,14.10
2023-02-14T19:32:09.353Z,14.70
2023-02-14T19:34:42.749Z,13.23
2023-02-14T19:37:22.723Z,12.33
2023-02-14T19:39:53.077Z,15.23
2023-02-14T19:42:26.256Z,13.23
2023-02-14T19:44:58.223Z,12.93
2023-02-14T19:47:46.226Z,13.50
2023-02-14T19:50:21.929Z,12.27
2023-02-14T20:01:28.746Z,19.40
2023-02-14T20:04:57.011Z,20.63
2023-02-14T20:11:50.704Z,16.50
2023-02-14T20:15:31.287Z,14.07
2023-02-14T20:20:44.694Z,16.07
2023-02-14T20:35:03.165Z,14.13
2023-02-14T20:38:34.247Z,14.60
2023-02-14T20:41:54.233Z,14.87
2023-02-14T20:45:22.298Z,13.63
2023-02-14T21:06:18.129Z,15.27
2023-02-14T21:09:04.881Z,15.53
2023-02-14T21:17:17.096Z,16.10
